sensor_id;sensor_type;location;lat;lon;timestamp;P1;durP1;ratioP1;P2;durP2;ratioP2
20846;SDS011;10584;50.854;12.902;2023-02-01T00:00:29;12.17;;;3.43;;
20846;SDS011;10584;50.854;12.902;2023-02-01T00:05:57;15.53;;;5.53;;
20846;SDS011;10584;50.854;12.902;2023-02-01T00:11:20;12.43;;;3.60;;
20846;SDS011;10584;50.854;12.902;2023-02-01T00:16:42;9.43;;;3.83;;
20846;SDS011;10584;50.854;12.902;2023-02-01T00:22:03;15.40;;;5.27;;
20846;SDS011;10584;50.854;12.902;2023-02-01T00:27:25;11.10;;;3.80;;
20846;SDS011;10584;50.854;12.902;2023-02-01T00:32:46;12.80;;;3.50;;
20846;SDS011;10584;50.854;12.902;2023-02-01T00:38:08;10.70;;;3.07;;
20846;SDS011;10584;50.854;12.902;2023-02-01T00:43:32;13.40;;;3.50;;
20846;SDS011;10584;50.854;12.902;2023-02-01T00:48:55;12.40;;;3.40;;
20846;SDS011;10584;50.854;12.902;2023-02-01T00:54:16;11.00;;;3.43;;
20846;SDS011;10584;50.854;12.902;2023-02-01T00:59:38;8.40;;;2.80;;
20846;SDS011;10584;50.854;12.902;2023-02-01T01:04:59;11.47;;;3.23;;
20846;SDS011;10584;50.854;12.902;2023-02-01T01:10:20;11.20;;;2.87;;
20846;SDS011;10584;50.854;12.902;2023-02-01T01:15:42;9.50;;;3.20;;
20846;SDS011;10584;50.854;12.902;2023-02-01T01:21:05;5.87;;;2.60;;
20846;SDS011;10584;50.854;12.902;2023-02-01T01:26:29;10.57;;;3.07;;
20846;SDS011;10584;50.854;12.902;2023-02-01T01:31:50;6.83;;;2.87;;
20846;SDS011;10584;50.854;12.902;2023-02-01T01:37:12;8.47;;;2.57;;
20846;SDS011;10584;50.854;12.902;2023-02-01T01:42:40;10.93;;;3.23;;
20846;SDS011;10584;50.854;12.902;2023-02-01T01:48:16;8.97;;;3.00;;
20846;SDS011;10584;50.854;12.902;2023-02-01T01:53:52;8.17;;;2.80;;
20846;SDS011;10584;50.854;12.902;2023-02-01T01:59:20;9.73;;;3.63;;
20846;SDS011;10584;50.854;12.902;2023-02-01T02:04:43;8.07;;;3.07;;
20846;SDS011;10584;50.854;12.902;2023-02-01T02:10:05;11.90;;;3.57;;
20846;SDS011;10584;50.854;12.902;2023-02-01T02:15:31;9.20;;;2.90;;
20846;SDS011;10584;50.854;12.902;2023-02-01T02:21:14;5.27;;;2.47;;
20846;SDS011;10584;50.854;12.902;2023-02-01T02:43:32;13.23;;;2.40;;
20846;SDS011;10584;50.854;12.902;2023-02-01T02:49:39;10.45;;;2.50;;
20846;SDS011;10584;50.854;12.902;2023-02-01T02:55:02;12.33;;;2.40;;
20846;SDS011;10584;50.854;12.902;2023-02-01T03:00:30;14.27;;;2.60;;
20846;SDS011;10584;50.854;12.902;2023-02-01T03:06:14;8.50;;;2.47;;
20846;SDS011;10584;50.854;12.902;2023-02-01T03:11:40;9.00;;;2.90;;
20846;SDS011;10584;50.854;12.902;2023-02-01T03:17:29;7.23;;;2.50;;
20846;SDS011;10584;50.854;12.902;2023-02-01T03:22:55;7.87;;;2.33;;
20846;SDS011;10584;50.854;12.902;2023-02-01T03:28:19;8.70;;;2.60;;
20846;SDS011;10584;50.854;12.902;2023-02-01T03:33:43;13.47;;;2.63;;
20846;SDS011;10584;50.854;12.902;2023-02-01T03:39:16;2.90;;;1.07;;
20846;SDS011;10584;50.854;12.902;2023-02-01T03:50:31;9.80;;;2.50;;
20846;SDS011;10584;50.854;12.902;2023-02-01T03:55:59;9.50;;;2.57;;
20846;SDS011;10584;50.854;12.902;2023-02-01T04:01:22;7.37;;;2.37;;
20846;SDS011;10584;50.854;12.902;2023-02-01T04:06:43;11.60;;;2.57;;
20846;SDS011;10584;50.854;12.902;2023-02-01T04:12:05;9.57;;;2.23;;
20846;SDS011;10584;50.854;12.902;2023-02-01T04:17:26;9.47;;;1.93;;
20846;SDS011;10584;50.854;12.902;2023-02-01T04:22:48;13.63;;;2.63;;
20846;SDS011;10584;50.854;12.902;2023-02-01T04:28:10;14.33;;;2.80;;
20846;SDS011;10584;50.854;12.902;2023-02-01T04:33:31;15.43;;;2.50;;
20846;SDS011;10584;50.854;12.902;2023-02-01T04:38:53;15.57;;;2.87;;
20846;SDS011;10584;50.854;12.902;2023-02-01T04:44:18;17.13;;;2.70;;
20846;SDS011;10584;50.854;12.902;2023-02-01T04:49:40;10.20;;;2.53;;
20846;SDS011;10584;50.854;12.902;2023-02-01T04:55:02;8.70;;;2.43;;
20846;SDS011;10584;50.854;12.902;2023-02-01T05:00:23;14.23;;;2.57;;
20846;SDS011;10584;50.854;12.902;2023-02-01T05:05:46;8.53;;;3.67;;
20846;SDS011;10584;50.854;12.902;2023-02-01T05:11:08;19.07;;;5.70;;
20846;SDS011;10584;50.854;12.902;2023-02-01T05:16:50;12.57;;;3.20;;
20846;SDS011;10584;50.854;12.902;2023-02-01T05:22:11;11.30;;;2.67;;
20846;SDS011;10584;50.854;12.902;2023-02-01T05:27:33;16.53;;;2.77;;
20846;SDS011;10584;50.854;12.902;2023-02-01T05:32:54;8.67;;;3.00;;
20846;SDS011;10584;50.854;12.902;2023-02-01T05:38:16;13.00;;;3.30;;
20846;SDS011;10584;50.854;12.902;2023-02-01T05:43:37;9.60;;;3.10;;
20846;SDS011;10584;50.854;12.902;2023-02-01T05:48:59;9.77;;;2.87;;
20846;SDS011;10584;50.854;12.902;2023-02-01T05:54:21;11.57;;;2.80;;
20846;SDS011;10584;50.854;12.902;2023-02-01T05:59:42;8.43;;;2.77;;
20846;SDS011;10584;50.854;12.902;2023-02-01T06:05:07;12.60;;;2.60;;
20846;SDS011;10584;50.854;12.902;2023-02-01T06:10:29;8.80;;;2.70;;
20846;SDS011;10584;50.854;12.902;2023-02-01T06:15:50;11.97;;;3.03;;
20846;SDS011;10584;50.854;12.902;2023-02-01T06:21:12;13.13;;;2.90;;
20846;SDS011;10584;50.854;12.902;2023-02-01T06:26:35;7.20;;;3.00;;
20846;SDS011;10584;50.854;12.902;2023-02-01T06:31:58;9.60;;;3.13;;
20846;SDS011;10584;50.854;12.902;2023-02-01T06:37:20;7.10;;;2.40;;
20846;SDS011;10584;50.854;12.902;2023-02-01T06:42:42;12.60;;;3.40;;
20846;SDS011;10584;50.854;12.902;2023-02-01T06:48:03;12.87;;;3.63;;
20846;SDS011;10584;50.854;12.902;2023-02-01T06:53:25;9.73;;;3.27;;
20846;SDS011;10584;50.854;12.902;2023-02-01T06:58:47;13.83;;;3.13;;
20846;SDS011;10584;50.854;12.902;2023-02-01T07:04:10;13.87;;;4.40;;
20846;SDS011;10584;50.854;12.902;2023-02-01T07:09:32;17.07;;;4.03;;
20846;SDS011;10584;50.854;12.902;2023-02-01T07:14:53;6.80;;;2.90;;
20846;SDS011;10584;50.854;12.902;2023-02-01T07:20:16;14.53;;;3.23;;
20846;SDS011;10584;50.854;12.902;2023-02-01T07:25:38;11.37;;;3.20;;
20846;SDS011;10584;50.854;12.902;2023-02-01T07:36:29;10.93;;;3.33;;
20846;SDS011;10584;50.854;12.902;2023-02-01T07:41:50;14.53;;;3.73;;
20846;SDS011;10584;50.854;12.902;2023-02-01T07:47:12;11.37;;;3.33;;
20846;SDS011;10584;50.854;12.902;2023-02-01T07:52:33;12.30;;;3.03;;
20846;SDS011;10584;50.854;12.902;2023-02-01T07:57:58;14.10;;;3.10;;
20846;SDS011;10584;50.854;12.902;2023-02-01T08:03:20;18.47;;;3.20;;
20846;SDS011;10584;50.854;12.902;2023-02-01T08:08:41;11.63;;;3.17;;
20846;SDS011;10584;50.854;12.902;2023-02-01T08:14:05;9.23;;;3.30;;
20846;SDS011;10584;50.854;12.902;2023-02-01T08:19:27;9.33;;;2.67;;
20846;SDS011;10584;50.854;12.902;2023-02-01T08:24:48;13.43;;;2.70;;
20846;SDS011;10584;50.854;12.902;2023-02-01T08:30:10;9.77;;;2.93;;
20846;SDS011;10584;50.854;12.902;2023-02-01T08:35:34;11.70;;;2.30;;
20846;SDS011;10584;50.854;12.902;2023-02-01T08:41:10;5.43;;;1.60;;
20846;SDS011;10584;50.854;12.902;2023-02-01T08:46:33;17.30;;;2.43;;
20846;SDS011;10584;50.854;12.902;2023-02-01T08:51:55;9.40;;;2.20;;
20846;SDS011;10584;50.854;12.902;2023-02-01T08:57:23;7.73;;;2.60;;
20846;SDS011;10584;50.854;12.902;2023-02-01T09:02:44;8.23;;;1.90;;
20846;SDS011;10584;50.854;12.902;2023-02-01T09:08:06;12.77;;;3.17;;
20846;SDS011;10584;50.854;12.902;2023-02-01T09:13:28;6.33;;;1.70;;
20846;SDS011;10584;50.854;12.902;2023-02-01T09:18:50;16.10;;;2.60;;
20846;SDS011;10584;50.854;12.902;2023-02-01T09:24:26;15.30;;;3.30;;
20846;SDS011;10584;50.854;12.902;2023-02-01T09:29:48;9.87;;;2.50;;
20846;SDS011;10584;50.854;12.902;2023-02-01T09:35:12;9.60;;;2.40;;
20846;SDS011;10584;50.854;12.902;2023-02-01T09:40:34;14.03;;;3.00;;
20846;SDS011;10584;50.854;12.902;2023-02-01T09:46:03;13.60;;;2.93;;
20846;SDS011;10584;50.854;12.902;2023-02-01T09:51:37;18.07;;;2.63;;
20846;SDS011;10584;50.854;12.902;2023-02-01T10:02:36;7.47;;;2.07;;
20846;SDS011;10584;50.854;12.902;2023-02-01T10:24:51;13.80;;;3.20;;
20846;SDS011;10584;50.854;12.902;2023-02-01T10:30:21;7.17;;;2.87;;
20846;SDS011;10584;50.854;12.902;2023-02-01T10:35:45;11.37;;;3.20;;
20846;SDS011;10584;50.854;12.902;2023-02-01T10:41:20;9.50;;;2.87;;
20846;SDS011;10584;50.854;12.902;2023-02-01T10:46:43;10.33;;;2.70;;
20846;SDS011;10584;50.854;12.902;2023-02-01T10:52:24;12.17;;;2.97;;
20846;SDS011;10584;50.854;12.902;2023-02-01T10:58:06;9.00;;;2.60;;
20846;SDS011;10584;50.854;12.902;2023-02-01T11:09:24;8.27;;;2.20;;
20846;SDS011;10584;50.854;12.902;2023-02-01T11:14:44;13.03;;;2.63;;
20846;SDS011;10584;50.854;12.902;2023-02-01T11:20:13;9.70;;;2.47;;
20846;SDS011;10584;50.854;12.902;2023-02-01T11:25:37;8.43;;;2.00;;
20846;SDS011;10584;50.854;12.902;2023-02-01T11:31:09;8.40;;;2.33;;
20846;SDS011;10584;50.854;12.902;2023-02-01T11:36:33;7.00;;;2.30;;
20846;SDS011;10584;50.854;12.902;2023-02-01T11:42:04;8.33;;;2.33;;
20846;SDS011;10584;50.854;12.902;2023-02-01T11:47:30;10.87;;;2.70;;
20846;SDS011;10584;50.854;12.902;2023-02-01T12:10:17;7.77;;;2.60;;
20846;SDS011;10584;50.854;12.902;2023-02-01T12:16:01;11.33;;;2.60;;
20846;SDS011;10584;50.854;12.902;2023-02-01T12:21:50;6.33;;;2.27;;
20846;SDS011;10584;50.854;12.902;2023-02-01T12:33:11;10.53;;;2.27;;
20846;SDS011;10584;50.854;12.902;2023-02-01T12:38:51;12.53;;;2.97;;
20846;SDS011;10584;50.854;12.902;2023-02-01T12:55:27;6.23;;;2.27;;
20846;SDS011;10584;50.854;12.902;2023-02-01T13:06:24;9.10;;;2.27;;
20846;SDS011;10584;50.854;12.902;2023-02-01T13:11:51;6.37;;;2.47;;
20846;SDS011;10584;50.854;12.902;2023-02-01T13:17:21;9.90;;;2.37;;
20846;SDS011;10584;50.854;12.902;2023-02-01T13:22:46;7.23;;;2.20;;
20846;SDS011;10584;50.854;12.902;2023-02-01T13:45:23;8.47;;;2.43;;
20846;SDS011;10584;50.854;12.902;2023-02-01T13:50:52;9.67;;;2.63;;
20846;SDS011;10584;50.854;12.902;2023-02-01T13:56:16;13.70;;;2.70;;
20846;SDS011;10584;50.854;12.902;2023-02-01T14:01:40;6.40;;;2.80;;
20846;SDS011;10584;50.854;12.902;2023-02-01T14:07:01;11.23;;;2.73;;
20846;SDS011;10584;50.854;12.902;2023-02-01T14:34:56;5.77;;;2.60;;
20846;SDS011;10584;50.854;12.902;2023-02-01T14:40:22;9.90;;;2.60;;
20846;SDS011;10584;50.854;12.902;2023-02-01T14:45:47;12.50;;;2.93;;
20846;SDS011;10584;50.854;12.902;2023-02-01T14:51:11;7.53;;;2.90;;
20846;SDS011;10584;50.854;12.902;2023-02-01T14:56:36;7.13;;;2.27;;
20846;SDS011;10584;50.854;12.902;2023-02-01T15:01:58;11.23;;;3.53;;
20846;SDS011;10584;50.854;12.902;2023-02-01T15:07:23;10.17;;;3.07;;
20846;SDS011;10584;50.854;12.902;2023-02-01T15:12:47;11.13;;;2.97;;
20846;SDS011;10584;50.854;12.902;2023-02-01T15:18:14;11.60;;;3.80;;
20846;SDS011;10584;50.854;12.902;2023-02-01T15:23:38;10.80;;;4.47;;
20846;SDS011;10584;50.854;12.902;2023-02-01T15:29:00;11.80;;;3.97;;
20846;SDS011;10584;50.854;12.902;2023-02-01T15:34:21;10.53;;;3.10;;
20846;SDS011;10584;50.854;12.902;2023-02-01T15:45:31;10.33;;;3.30;;
20846;SDS011;10584;50.854;12.902;2023-02-01T15:50:53;8.63;;;3.27;;
20846;SDS011;10584;50.854;12.902;2023-02-01T15:56:16;10.10;;;3.20;;
20846;SDS011;10584;50.854;12.902;2023-02-01T16:01:44;9.30;;;2.90;;
20846;SDS011;10584;50.854;12.902;2023-02-01T16:07:20;9.63;;;2.73;;
20846;SDS011;10584;50.854;12.902;2023-02-01T16:12:49;7.17;;;2.30;;
20846;SDS011;10584;50.854;12.902;2023-02-01T16:18:13;9.10;;;2.70;;
20846;SDS011;10584;50.854;12.902;2023-02-01T16:23:38;6.73;;;2.30;;
20846;SDS011;10584;50.854;12.902;2023-02-01T16:29:00;5.47;;;2.10;;
20846;SDS011;10584;50.854;12.902;2023-02-01T16:34:26;10.43;;;1.87;;
20846;SDS011;10584;50.854;12.902;2023-02-01T16:39:47;5.07;;;2.30;;
20846;SDS011;10584;50.854;12.902;2023-02-01T16:45:09;9.20;;;1.67;;
20846;SDS011;10584;50.854;12.902;2023-02-01T16:50:31;8.63;;;2.40;;
20846;SDS011;10584;50.854;12.902;2023-02-01T16:55:53;6.43;;;2.30;;
20846;SDS011;10584;50.854;12.902;2023-02-01T17:01:18;2.30;;;0.90;;
20846;SDS011;10584;50.854;12.902;2023-02-01T17:06:39;2.15;;;0.52;;
20846;SDS011;10584;50.854;12.902;2023-02-01T17:12:02;0.97;;;0.60;;
20846;SDS011;10584;50.854;12.902;2023-02-01T17:17:30;0.40;;;0.40;;
20846;SDS011;10584;50.854;12.902;2023-02-01T17:22:58;0.73;;;0.40;;
20846;SDS011;10584;50.854;12.902;2023-02-01T17:28:20;1.53;;;0.80;;
20846;SDS011;10584;50.854;12.902;2023-02-01T17:33:41;0.93;;;0.67;;
20846;SDS011;10584;50.854;12.902;2023-02-01T17:39:04;1.13;;;1.03;;
20846;SDS011;10584;50.854;12.902;2023-02-01T17:44:25;1.30;;;0.80;;
20846;SDS011;10584;50.854;12.902;2023-02-01T17:49:47;4.77;;;1.20;;
20846;SDS011;10584;50.854;12.902;2023-02-01T17:55:19;3.40;;;1.20;;
20846;SDS011;10584;50.854;12.902;2023-02-01T18:00:43;1.07;;;0.60;;
20846;SDS011;10584;50.854;12.902;2023-02-01T18:06:11;1.33;;;1.00;;
20846;SDS011;10584;50.854;12.902;2023-02-01T18:11:37;2.37;;;1.00;;
20846;SDS011;10584;50.854;12.902;2023-02-01T18:16:58;4.97;;;0.83;;
20846;SDS011;10584;50.854;12.902;2023-02-01T18:22:20;3.70;;;1.10;;
20846;SDS011;10584;50.854;12.902;2023-02-01T18:27:43;2.00;;;1.10;;
20846;SDS011;10584;50.854;12.902;2023-02-01T18:33:07;2.83;;;1.50;;
20846;SDS011;10584;50.854;12.902;2023-02-01T18:38:33;2.37;;;1.60;;
20846;SDS011;10584;50.854;12.902;2023-02-01T18:43:55;3.00;;;1.73;;
20846;SDS011;10584;50.854;12.902;2023-02-01T18:49:16;1.70;;;1.33;;
20846;SDS011;10584;50.854;12.902;2023-02-01T18:54:38;7.67;;;1.90;;
20846;SDS011;10584;50.854;12.902;2023-02-01T19:00:18;3.27;;;1.87;;
20846;SDS011;10584;50.854;12.902;2023-02-01T19:05:41;2.90;;;1.43;;
20846;SDS011;10584;50.854;12.902;2023-02-01T19:11:06;7.77;;;2.30;;
20846;SDS011;10584;50.854;12.902;2023-02-01T19:16:29;6.93;;;2.23;;
20846;SDS011;10584;50.854;12.902;2023-02-01T19:21:50;8.73;;;2.23;;
20846;SDS011;10584;50.854;12.902;2023-02-01T19:27:12;5.97;;;2.40;;
20846;SDS011;10584;50.854;12.902;2023-02-01T19:32:33;3.70;;;2.13;;
20846;SDS011;10584;50.854;12.902;2023-02-01T19:37:55;5.33;;;2.47;;
20846;SDS011;10584;50.854;12.902;2023-02-01T19:43:17;7.17;;;2.23;;
20846;SDS011;10584;50.854;12.902;2023-02-01T19:48:38;6.13;;;2.43;;
20846;SDS011;10584;50.854;12.902;2023-02-01T19:54:00;7.20;;;3.03;;
20846;SDS011;10584;50.854;12.902;2023-02-01T19:59:21;7.30;;;2.80;;
20846;SDS011;10584;50.854;12.902;2023-02-01T20:04:43;7.37;;;2.73;;
20846;SDS011;10584;50.854;12.902;2023-02-01T20:10:05;6.00;;;2.87;;
20846;SDS011;10584;50.854;12.902;2023-02-01T20:15:27;4.77;;;2.37;;
20846;SDS011;10584;50.854;12.902;2023-02-01T20:20:49;7.10;;;2.80;;
20846;SDS011;10584;50.854;12.902;2023-02-01T20:26:14;5.87;;;2.73;;
20846;SDS011;10584;50.854;12.902;2023-02-01T20:31:36;11.30;;;2.70;;
20846;SDS011;10584;50.854;12.902;2023-02-01T20:36:57;6.60;;;2.80;;
20846;SDS011;10584;50.854;12.902;2023-02-01T20:42:19;7.40;;;2.70;;
20846;SDS011;10584;50.854;12.902;2023-02-01T20:47:40;7.53;;;2.67;;
20846;SDS011;10584;50.854;12.902;2023-02-01T20:53:02;8.93;;;2.87;;
20846;SDS011;10584;50.854;12.902;2023-02-01T20:58:24;9.87;;;2.63;;
20846;SDS011;10584;50.854;12.902;2023-02-01T21:03:46;6.37;;;2.17;;
20846;SDS011;10584;50.854;12.902;2023-02-01T21:09:07;3.03;;;1.93;;
20846;SDS011;10584;50.854;12.902;2023-02-01T21:14:29;7.93;;;2.17;;
20846;SDS011;10584;50.854;12.902;2023-02-01T21:19:50;9.67;;;2.50;;
20846;SDS011;10584;50.854;12.902;2023-02-01T21:25:12;10.73;;;2.20;;
20846;SDS011;10584;50.854;12.902;2023-02-01T21:30:34;11.37;;;2.50;;
20846;SDS011;10584;50.854;12.902;2023-02-01T21:35:56;10.20;;;2.80;;
20846;SDS011;10584;50.854;12.902;2023-02-01T21:41:18;11.67;;;2.63;;
20846;SDS011;10584;50.854;12.902;2023-02-01T21:47:01;9.00;;;2.10;;
20846;SDS011;10584;50.854;12.902;2023-02-01T21:52:22;9.53;;;2.30;;
20846;SDS011;10584;50.854;12.902;2023-02-01T21:57:44;9.97;;;1.87;;
20846;SDS011;10584;50.854;12.902;2023-02-01T22:03:06;5.03;;;1.80;;
20846;SDS011;10584;50.854;12.902;2023-02-01T22:08:27;10.63;;;1.97;;
20846;SDS011;10584;50.854;12.902;2023-02-01T22:13:49;9.63;;;2.13;;
20846;SDS011;10584;50.854;12.902;2023-02-01T22:19:11;6.07;;;2.03;;
20846;SDS011;10584;50.854;12.902;2023-02-01T22:24:33;5.13;;;1.53;;
20846;SDS011;10584;50.854;12.902;2023-02-01T22:29:55;3.40;;;1.57;;
20846;SDS011;10584;50.854;12.902;2023-02-01T22:35:17;5.77;;;1.80;;
20846;SDS011;10584;50.854;12.902;2023-02-01T22:40:38;4.80;;;1.57;;
20846;SDS011;10584;50.854;12.902;2023-02-01T22:46:03;2.77;;;1.13;;
20846;SDS011;10584;50.854;12.902;2023-02-01T22:51:28;5.47;;;2.00;;
20846;SDS011;10584;50.854;12.902;2023-02-01T22:56:51;5.87;;;1.97;;
20846;SDS011;10584;50.854;12.902;2023-02-01T23:02:13;8.07;;;1.90;;
20846;SDS011;10584;50.854;12.902;2023-02-01T23:07:34;11.63;;;2.50;;
20846;SDS011;10584;50.854;12.902;2023-02-01T23:12:56;6.10;;;2.00;;
20846;SDS011;10584;50.854;12.902;2023-02-01T23:18:17;11.93;;;2.03;;
20846;SDS011;10584;50.854;12.902;2023-02-01T23:23:39;5.00;;;1.70;;
20846;SDS011;10584;50.854;12.902;2023-02-01T23:29:05;6.93;;;1.80;;
20846;SDS011;10584;50.854;12.902;2023-02-01T23:34:29;6.23;;;1.83;;
20846;SDS011;10584;50.854;12.902;2023-02-01T23:39:51;7.20;;;1.80;;
20846;SDS011;10584;50.854;12.902;2023-02-01T23:45:12;5.50;;;1.53;;
20846;SDS011;10584;50.854;12.902;2023-02-01T23:50:34;7.27;;;2.00;;
20846;SDS011;10584;50.854;12.902;2023-02-01T23:55:55;7.63;;;2.30;;
